sensor_id;sensor_type;location;lat;lon;timestamp;P1;durP1;ratioP1;P2;durP2;ratioP2
4650;SDS011;2338;49.602;8.722;2023-08-20T00:02:40;15.13;;;9.27;;
4650;SDS011;2338;49.602;8.722;2023-08-20T00:05:27;12.67;;;9.47;;
4650;SDS011;2338;49.602;8.722;2023-08-20T00:08:13;15.33;;;9.37;;
4650;SDS011;2338;49.602;8.722;2023-08-20T00:11:00;13.27;;;8.37;;
4650;SDS011;2338;49.602;8.722;2023-08-20T00:13:46;15.17;;;9.90;;
4650;SDS011;2338;49.602;8.722;2023-08-20T00:16:32;13.53;;;8.50;;
4650;SDS011;2338;49.602;8.722;2023-08-20T00:19:18;16.43;;;8.60;;
4650;SDS011;2338;49.602;8.722;2023-08-20T00:22:04;9.30;;;8.40;;
4650;SDS011;2338;49.602;8.722;2023-08-20T00:24:50;14.43;;;9.30;;
4650;SDS011;2338;49.602;8.722;2023-08-20T00:27:37;8.93;;;8.03;;
4650;SDS011;2338;49.602;8.722;2023-08-20T00:30:23;14.50;;;8.93;;
4650;SDS011;2338;49.602;8.722;2023-08-20T00:33:09;12.03;;;7.80;;
4650;SDS011;2338;49.602;8.722;2023-08-20T00:35:54;12.00;;;8.40;;
4650;SDS011;2338;49.602;8.722;2023-08-20T00:38:40;19.33;;;8.70;;
4650;SDS011;2338;49.602;8.722;2023-08-20T00:41:25;11.80;;;8.60;;
4650;SDS011;2338;49.602;8.722;2023-08-20T00:44:12;10.87;;;7.03;;
4650;SDS011;2338;49.602;8.722;2023-08-20T00:46:58;15.57;;;8.97;;
4650;SDS011;2338;49.602;8.722;2023-08-20T00:49:45;11.47;;;9.50;;
4650;SDS011;2338;49.602;8.722;2023-08-20T00:52:32;13.20;;;9.20;;
4650;SDS011;2338;49.602;8.722;2023-08-20T00:55:18;14.63;;;9.07;;
4650;SDS011;2338;49.602;8.722;2023-08-20T00:58:03;10.63;;;9.00;;
4650;SDS011;2338;49.602;8.722;2023-08-20T01:00:51;9.63;;;8.73;;
4650;SDS011;2338;49.602;8.722;2023-08-20T01:03:36;12.17;;;8.83;;
4650;SDS011;2338;49.602;8.722;2023-08-20T01:06:23;12.70;;;9.10;;
4650;SDS011;2338;49.602;8.722;2023-08-20T01:09:21;12.60;;;9.03;;
4650;SDS011;2338;49.602;8.722;2023-08-20T01:12:16;9.97;;;8.97;;
4650;SDS011;2338;49.602;8.722;2023-08-20T01:15:02;13.27;;;8.67;;
4650;SDS011;2338;49.602;8.722;2023-08-20T01:17:49;9.93;;;8.70;;
4650;SDS011;2338;49.602;8.722;2023-08-20T01:20:36;12.40;;;8.50;;
4650;SDS011;2338;49.602;8.722;2023-08-20T01:26:48;12.73;;;9.47;;
4650;SDS011;2338;49.602;8.722;2023-08-20T01:29:46;11.53;;;8.30;;
4650;SDS011;2338;49.602;8.722;2023-08-20T01:32:32;16.30;;;8.70;;
4650;SDS011;2338;49.602;8.722;2023-08-20T01:35:18;12.90;;;8.57;;
4650;SDS011;2338;49.602;8.722;2023-08-20T01:38:04;12.97;;;7.93;;
4650;SDS011;2338;49.602;8.722;2023-08-20T01:40:49;9.70;;;8.27;;
4650;SDS011;2338;49.602;8.722;2023-08-20T01:43:35;16.27;;;9.50;;
4650;SDS011;2338;49.602;8.722;2023-08-20T01:46:22;9.27;;;8.37;;
4650;SDS011;2338;49.602;8.722;2023-08-20T01:49:07;13.43;;;9.00;;
4650;SDS011;2338;49.602;8.722;2023-08-20T01:51:53;8.93;;;8.03;;
4650;SDS011;2338;49.602;8.722;2023-08-20T01:54:38;10.13;;;8.47;;
4650;SDS011;2338;49.602;8.722;2023-08-20T01:57:24;10.87;;;8.17;;
4650;SDS011;2338;49.602;8.722;2023-08-20T02:00:10;14.63;;;8.53;;
4650;SDS011;2338;49.602;8.722;2023-08-20T02:02:58;20.57;;;9.47;;
4650;SDS011;2338;49.602;8.722;2023-08-20T02:05:43;11.17;;;8.07;;
4650;SDS011;2338;49.602;8.722;2023-08-20T02:08:29;15.87;;;8.33;;
4650;SDS011;2338;49.602;8.722;2023-08-20T02:11:14;10.10;;;8.57;;
4650;SDS011;2338;49.602;8.722;2023-08-20T02:14:00;9.53;;;7.83;;
4650;SDS011;2338;49.602;8.722;2023-08-20T02:16:45;13.20;;;8.07;;
4650;SDS011;2338;49.602;8.722;2023-08-20T02:19:32;10.37;;;8.40;;
4650;SDS011;2338;49.602;8.722;2023-08-20T02:22:18;12.00;;;8.33;;
4650;SDS011;2338;49.602;8.722;2023-08-20T02:25:04;9.10;;;7.80;;
4650;SDS011;2338;49.602;8.722;2023-08-20T02:27:50;8.90;;;7.20;;
4650;SDS011;2338;49.602;8.722;2023-08-20T02:30:38;11.47;;;7.50;;
4650;SDS011;2338;49.602;8.722;2023-08-20T02:33:25;9.43;;;7.70;;
4650;SDS011;2338;49.602;8.722;2023-08-20T02:36:12;10.57;;;9.13;;
4650;SDS011;2338;49.602;8.722;2023-08-20T02:38:57;14.97;;;8.47;;
4650;SDS011;2338;49.602;8.722;2023-08-20T02:41:42;9.60;;;8.67;;
4650;SDS011;2338;49.602;8.722;2023-08-20T02:44:28;9.80;;;8.77;;
4650;SDS011;2338;49.602;8.722;2023-08-20T02:47:14;15.03;;;8.20;;
4650;SDS011;2338;49.602;8.722;2023-08-20T02:49:59;14.13;;;8.13;;
4650;SDS011;2338;49.602;8.722;2023-08-20T02:52:46;10.00;;;7.70;;
4650;SDS011;2338;49.602;8.722;2023-08-20T02:55:32;8.97;;;7.33;;
4650;SDS011;2338;49.602;8.722;2023-08-20T02:58:18;9.67;;;8.00;;
4650;SDS011;2338;49.602;8.722;2023-08-20T03:01:04;14.80;;;7.77;;
4650;SDS011;2338;49.602;8.722;2023-08-20T03:03:50;8.87;;;7.63;;
4650;SDS011;2338;49.602;8.722;2023-08-20T03:06:36;22.87;;;9.03;;
4650;SDS011;2338;49.602;8.722;2023-08-20T03:09:22;8.60;;;7.80;;
4650;SDS011;2338;49.602;8.722;2023-08-20T03:12:08;10.73;;;7.10;;
4650;SDS011;2338;49.602;8.722;2023-08-20T03:14:54;13.10;;;7.30;;
4650;SDS011;2338;49.602;8.722;2023-08-20T03:17:39;8.87;;;7.17;;
4650;SDS011;2338;49.602;8.722;2023-08-20T03:20:25;9.57;;;7.50;;
4650;SDS011;2338;49.602;8.722;2023-08-20T03:23:12;11.70;;;7.30;;
4650;SDS011;2338;49.602;8.722;2023-08-20T03:25:58;11.50;;;8.60;;
4650;SDS011;2338;49.602;8.722;2023-08-20T03:28:44;8.60;;;7.20;;
4650;SDS011;2338;49.602;8.722;2023-08-20T03:31:29;8.30;;;7.43;;
4650;SDS011;2338;49.602;8.722;2023-08-20T03:34:15;9.63;;;8.63;;
4650;SDS011;2338;49.602;8.722;2023-08-20T03:37:01;14.20;;;7.90;;
4650;SDS011;2338;49.602;8.722;2023-08-20T03:39:46;11.40;;;8.57;;
4650;SDS011;2338;49.602;8.722;2023-08-20T03:42:33;11.50;;;9.13;;
4650;SDS011;2338;49.602;8.722;2023-08-20T03:45:19;12.20;;;8.90;;
4650;SDS011;2338;49.602;8.722;2023-08-20T03:48:04;9.10;;;8.20;;
4650;SDS011;2338;49.602;8.722;2023-08-20T03:50:50;11.77;;;8.53;;
4650;SDS011;2338;49.602;8.722;2023-08-20T03:53:35;9.33;;;7.60;;
4650;SDS011;2338;49.602;8.722;2023-08-20T03:56:21;9.40;;;8.23;;
4650;SDS011;2338;49.602;8.722;2023-08-20T03:59:08;11.40;;;8.63;;
4650;SDS011;2338;49.602;8.722;2023-08-20T04:01:54;21.33;;;9.87;;
4650;SDS011;2338;49.602;8.722;2023-08-20T04:04:39;11.93;;;8.40;;
4650;SDS011;2338;49.602;8.722;2023-08-20T04:07:24;11.00;;;8.50;;
4650;SDS011;2338;49.602;8.722;2023-08-20T04:10:10;10.37;;;8.13;;
4650;SDS011;2338;49.602;8.722;2023-08-20T04:12:56;7.63;;;6.60;;
4650;SDS011;2338;49.602;8.722;2023-08-20T04:15:43;16.10;;;8.40;;
4650;SDS011;2338;49.602;8.722;2023-08-20T04:18:28;10.33;;;8.93;;
4650;SDS011;2338;49.602;8.722;2023-08-20T04:21:14;13.07;;;7.80;;
4650;SDS011;2338;49.602;8.722;2023-08-20T04:23:59;11.60;;;7.57;;
4650;SDS011;2338;49.602;8.722;2023-08-20T04:26:45;12.13;;;7.70;;
4650;SDS011;2338;49.602;8.722;2023-08-20T04:29:30;12.00;;;8.13;;
4650;SDS011;2338;49.602;8.722;2023-08-20T04:32:17;8.07;;;7.27;;
4650;SDS011;2338;49.602;8.722;2023-08-20T04:35:03;12.43;;;6.97;;
4650;SDS011;2338;49.602;8.722;2023-08-20T04:37:49;15.43;;;7.87;;
4650;SDS011;2338;49.602;8.722;2023-08-20T04:40:34;9.80;;;7.70;;
4650;SDS011;2338;49.602;8.722;2023-08-20T04:43:20;8.73;;;7.80;;
4650;SDS011;2338;49.602;8.722;2023-08-20T04:46:06;12.07;;;7.60;;
4650;SDS011;2338;49.602;8.722;2023-08-20T04:48:53;8.57;;;7.23;;
4650;SDS011;2338;49.602;8.722;2023-08-20T04:51:38;12.40;;;7.20;;
4650;SDS011;2338;49.602;8.722;2023-08-20T04:54:24;12.50;;;7.80;;
4650;SDS011;2338;49.602;8.722;2023-08-20T04:57:09;9.03;;;7.23;;
4650;SDS011;2338;49.602;8.722;2023-08-20T04:59:55;10.93;;;8.40;;
4650;SDS011;2338;49.602;8.722;2023-08-20T05:02:41;15.50;;;8.13;;
4650;SDS011;2338;49.602;8.722;2023-08-20T05:05:27;13.87;;;7.80;;
4650;SDS011;2338;49.602;8.722;2023-08-20T05:08:13;10.90;;;7.90;;
4650;SDS011;2338;49.602;8.722;2023-08-20T05:10:58;8.60;;;7.77;;
4650;SDS011;2338;49.602;8.722;2023-08-20T05:13:45;11.20;;;7.93;;
4650;SDS011;2338;49.602;8.722;2023-08-20T05:16:32;9.63;;;8.40;;
4650;SDS011;2338;49.602;8.722;2023-08-20T05:19:17;10.20;;;8.43;;
4650;SDS011;2338;49.602;8.722;2023-08-20T05:22:04;10.47;;;7.93;;
4650;SDS011;2338;49.602;8.722;2023-08-20T05:24:50;7.67;;;6.80;;
4650;SDS011;2338;49.602;8.722;2023-08-20T05:27:35;8.67;;;7.77;;
4650;SDS011;2338;49.602;8.722;2023-08-20T05:30:21;9.43;;;7.83;;
4650;SDS011;2338;49.602;8.722;2023-08-20T05:33:06;13.73;;;7.40;;
4650;SDS011;2338;49.602;8.722;2023-08-20T05:35:52;9.33;;;8.33;;
4650;SDS011;2338;49.602;8.722;2023-08-20T05:38:39;18.93;;;9.00;;
4650;SDS011;2338;49.602;8.722;2023-08-20T05:41:25;12.17;;;7.83;;
4650;SDS011;2338;49.602;8.722;2023-08-20T05:44:11;9.90;;;7.90;;
4650;SDS011;2338;49.602;8.722;2023-08-20T05:46:56;12.30;;;7.93;;
4650;SDS011;2338;49.602;8.722;2023-08-20T05:49:42;10.60;;;8.70;;
4650;SDS011;2338;49.602;8.722;2023-08-20T05:52:28;10.63;;;7.50;;
4650;SDS011;2338;49.602;8.722;2023-08-20T05:55:15;11.37;;;8.50;;
4650;SDS011;2338;49.602;8.722;2023-08-20T05:58:00;9.80;;;8.40;;
4650;SDS011;2338;49.602;8.722;2023-08-20T06:00:46;9.23;;;7.37;;
4650;SDS011;2338;49.602;8.722;2023-08-20T06:03:32;11.57;;;8.47;;
4650;SDS011;2338;49.602;8.722;2023-08-20T06:06:17;13.80;;;8.63;;
4650;SDS011;2338;49.602;8.722;2023-08-20T06:09:03;9.43;;;8.00;;
4650;SDS011;2338;49.602;8.722;2023-08-20T06:11:50;10.83;;;8.40;;
4650;SDS011;2338;49.602;8.722;2023-08-20T06:14:36;13.80;;;8.77;;
4650;SDS011;2338;49.602;8.722;2023-08-20T06:17:21;10.20;;;8.63;;
4650;SDS011;2338;49.602;8.722;2023-08-20T06:20:07;9.80;;;8.07;;
4650;SDS011;2338;49.602;8.722;2023-08-20T06:22:55;10.80;;;8.97;;
4650;SDS011;2338;49.602;8.722;2023-08-20T06:25:40;14.30;;;8.83;;
4650;SDS011;2338;49.602;8.722;2023-08-20T06:28:27;9.13;;;8.23;;
4650;SDS011;2338;49.602;8.722;2023-08-20T06:31:13;9.10;;;7.97;;
4650;SDS011;2338;49.602;8.722;2023-08-20T06:33:58;11.00;;;8.80;;
4650;SDS011;2338;49.602;8.722;2023-08-20T06:36:44;11.67;;;8.17;;
4650;SDS011;2338;49.602;8.722;2023-08-20T06:39:29;10.27;;;8.20;;
4650;SDS011;2338;49.602;8.722;2023-08-20T06:42:15;13.23;;;7.83;;
4650;SDS011;2338;49.602;8.722;2023-08-20T06:45:02;14.47;;;8.87;;
4650;SDS011;2338;49.602;8.722;2023-08-20T06:47:48;9.47;;;7.70;;
4650;SDS011;2338;49.602;8.722;2023-08-20T06:50:33;11.27;;;8.23;;
4650;SDS011;2338;49.602;8.722;2023-08-20T06:53:19;9.53;;;8.53;;
4650;SDS011;2338;49.602;8.722;2023-08-20T06:56:05;8.70;;;7.70;;
4650;SDS011;2338;49.602;8.722;2023-08-20T06:58:50;14.40;;;8.13;;
4650;SDS011;2338;49.602;8.722;2023-08-20T07:01:37;10.53;;;8.03;;
4650;SDS011;2338;49.602;8.722;2023-08-20T07:04:23;10.40;;;7.73;;
4650;SDS011;2338;49.602;8.722;2023-08-20T07:07:08;11.27;;;8.30;;
4650;SDS011;2338;49.602;8.722;2023-08-20T07:09:53;12.40;;;8.40;;
4650;SDS011;2338;49.602;8.722;2023-08-20T07:12:39;11.60;;;8.10;;
4650;SDS011;2338;49.602;8.722;2023-08-20T07:15:25;12.20;;;8.60;;
4650;SDS011;2338;49.602;8.722;2023-08-20T07:18:11;11.37;;;8.17;;
4650;SDS011;2338;49.602;8.722;2023-08-20T07:20:58;11.50;;;8.90;;
4650;SDS011;2338;49.602;8.722;2023-08-20T07:23:43;12.57;;;8.60;;
4650;SDS011;2338;49.602;8.722;2023-08-20T07:26:29;9.97;;;8.70;;
4650;SDS011;2338;49.602;8.722;2023-08-20T07:29:15;9.83;;;8.83;;
4650;SDS011;2338;49.602;8.722;2023-08-20T07:32:00;9.10;;;8.20;;
4650;SDS011;2338;49.602;8.722;2023-08-20T07:34:48;13.97;;;8.33;;
4650;SDS011;2338;49.602;8.722;2023-08-20T07:37:33;13.40;;;9.13;;
4650;SDS011;2338;49.602;8.722;2023-08-20T07:40:19;12.60;;;8.47;;
4650;SDS011;2338;49.602;8.722;2023-08-20T07:43:05;10.10;;;7.60;;
4650;SDS011;2338;49.602;8.722;2023-08-20T07:45:50;12.80;;;8.27;;
4650;SDS011;2338;49.602;8.722;2023-08-20T07:48:36;11.70;;;8.27;;
4650;SDS011;2338;49.602;8.722;2023-08-20T07:51:23;8.07;;;7.27;;
4650;SDS011;2338;49.602;8.722;2023-08-20T07:54:08;11.97;;;8.53;;
4650;SDS011;2338;49.602;8.722;2023-08-20T07:56:54;9.00;;;7.30;;
4650;SDS011;2338;49.602;8.722;2023-08-20T07:59:40;10.03;;;8.20;;
4650;SDS011;2338;49.602;8.722;2023-08-20T08:02:25;10.10;;;7.83;;
4650;SDS011;2338;49.602;8.722;2023-08-20T08:05:11;13.67;;;9.40;;
4650;SDS011;2338;49.602;8.722;2023-08-20T08:07:59;11.23;;;8.40;;
4650;SDS011;2338;49.602;8.722;2023-08-20T08:10:45;11.20;;;7.87;;
4650;SDS011;2338;49.602;8.722;2023-08-20T08:13:30;9.57;;;7.60;;
4650;SDS011;2338;49.602;8.722;2023-08-20T08:16:16;9.47;;;7.50;;
4650;SDS011;2338;49.602;8.722;2023-08-20T08:19:02;7.60;;;6.87;;
4650;SDS011;2338;49.602;8.722;2023-08-20T08:21:47;13.83;;;7.77;;
4650;SDS011;2338;49.602;8.722;2023-08-20T08:24:34;15.00;;;7.33;;
4650;SDS011;2338;49.602;8.722;2023-08-20T08:27:20;9.13;;;6.90;;
4650;SDS011;2338;49.602;8.722;2023-08-20T08:30:06;9.83;;;7.10;;
4650;SDS011;2338;49.602;8.722;2023-08-20T08:32:52;8.10;;;7.10;;
4650;SDS011;2338;49.602;8.722;2023-08-20T08:35:37;7.90;;;6.80;;
4650;SDS011;2338;49.602;8.722;2023-08-20T08:38:23;8.07;;;6.20;;
4650;SDS011;2338;49.602;8.722;2023-08-20T08:41:10;10.87;;;6.37;;
4650;SDS011;2338;49.602;8.722;2023-08-20T08:43:57;8.90;;;6.20;;
4650;SDS011;2338;49.602;8.722;2023-08-20T08:46:42;7.50;;;6.20;;
4650;SDS011;2338;49.602;8.722;2023-08-20T08:49:27;6.40;;;5.23;;
4650;SDS011;2338;49.602;8.722;2023-08-20T08:52:14;11.97;;;5.90;;
4650;SDS011;2338;49.602;8.722;2023-08-20T08:55:01;7.63;;;5.90;;
4650;SDS011;2338;49.602;8.722;2023-08-20T08:57:49;10.80;;;5.93;;
4650;SDS011;2338;49.602;8.722;2023-08-20T09:00:34;8.53;;;6.67;;
4650;SDS011;2338;49.602;8.722;2023-08-20T09:03:21;16.70;;;6.07;;
4650;SDS011;2338;49.602;8.722;2023-08-20T09:06:08;8.77;;;7.13;;
4650;SDS011;2338;49.602;8.722;2023-08-20T09:08:57;8.67;;;6.10;;
4650;SDS011;2338;49.602;8.722;2023-08-20T09:11:49;11.10;;;6.90;;
4650;SDS011;2338;49.602;8.722;2023-08-20T09:14:36;8.67;;;6.33;;
4650;SDS011;2338;49.602;8.722;2023-08-20T09:17:21;8.47;;;5.00;;
4650;SDS011;2338;49.602;8.722;2023-08-20T09:20:10;7.83;;;5.00;;
4650;SDS011;2338;49.602;8.722;2023-08-20T09:22:55;5.67;;;5.17;;
4650;SDS011;2338;49.602;8.722;2023-08-20T09:25:41;8.90;;;6.17;;
4650;SDS011;2338;49.602;8.722;2023-08-20T09:28:28;14.13;;;5.30;;
4650;SDS011;2338;49.602;8.722;2023-08-20T09:31:14;9.77;;;5.90;;
4650;SDS011;2338;49.602;8.722;2023-08-20T09:34:00;7.13;;;5.00;;
4650;SDS011;2338;49.602;8.722;2023-08-20T09:36:45;7.93;;;5.70;;
4650;SDS011;2338;49.602;8.722;2023-08-20T09:39:31;9.13;;;5.37;;
4650;SDS011;2338;49.602;8.722;2023-08-20T09:42:17;9.43;;;5.77;;
4650;SDS011;2338;49.602;8.722;2023-08-20T09:45:03;6.60;;;4.53;;
4650;SDS011;2338;49.602;8.722;2023-08-20T09:47:52;6.80;;;5.63;;
4650;SDS011;2338;49.602;8.722;2023-08-20T09:50:40;6.57;;;5.03;;
4650;SDS011;2338;49.602;8.722;2023-08-20T09:53:27;6.30;;;5.27;;
4650;SDS011;2338;49.602;8.722;2023-08-20T09:56:21;5.97;;;5.17;;
4650;SDS011;2338;49.602;8.722;2023-08-20T09:59:11;15.87;;;5.70;;
4650;SDS011;2338;49.602;8.722;2023-08-20T10:02:01;6.53;;;5.13;;
4650;SDS011;2338;49.602;8.722;2023-08-20T10:04:48;10.73;;;5.00;;
4650;SDS011;2338;49.602;8.722;2023-08-20T10:07:35;5.67;;;5.07;;
4650;SDS011;2338;49.602;8.722;2023-08-20T10:10:21;8.00;;;5.50;;
4650;SDS011;2338;49.602;8.722;2023-08-20T10:13:07;5.83;;;4.87;;
4650;SDS011;2338;49.602;8.722;2023-08-20T10:15:53;7.73;;;5.23;;
4650;SDS011;2338;49.602;8.722;2023-08-20T10:18:39;6.50;;;5.40;;
4650;SDS011;2338;49.602;8.722;2023-08-20T10:21:26;10.77;;;5.80;;
4650;SDS011;2338;49.602;8.722;2023-08-20T10:24:16;7.53;;;5.83;;
4650;SDS011;2338;49.602;8.722;2023-08-20T10:27:08;8.40;;;5.60;;
4650;SDS011;2338;49.602;8.722;2023-08-20T10:29:54;7.43;;;5.37;;
4650;SDS011;2338;49.602;8.722;2023-08-20T10:32:43;7.20;;;4.33;;
4650;SDS011;2338;49.602;8.722;2023-08-20T10:35:47;11.03;;;5.00;;
4650;SDS011;2338;49.602;8.722;2023-08-20T10:38:36;7.97;;;5.83;;
4650;SDS011;2338;49.602;8.722;2023-08-20T10:41:25;8.47;;;5.60;;
4650;SDS011;2338;49.602;8.722;2023-08-20T10:44:12;6.50;;;5.00;;
4650;SDS011;2338;49.602;8.722;2023-08-20T10:46:59;12.00;;;5.70;;
4650;SDS011;2338;49.602;8.722;2023-08-20T10:49:44;9.57;;;5.97;;
4650;SDS011;2338;49.602;8.722;2023-08-20T10:52:38;11.03;;;5.90;;
4650;SDS011;2338;49.602;8.722;2023-08-20T10:55:25;9.97;;;6.13;;
4650;SDS011;2338;49.602;8.722;2023-08-20T10:58:11;6.67;;;5.07;;
4650;SDS011;2338;49.602;8.722;2023-08-20T11:04:03;7.63;;;4.60;;
4650;SDS011;2338;49.602;8.722;2023-08-20T11:06:52;6.93;;;4.43;;
4650;SDS011;2338;49.602;8.722;2023-08-20T11:09:38;7.60;;;4.70;;
4650;SDS011;2338;49.602;8.722;2023-08-20T11:12:25;10.80;;;5.10;;
4650;SDS011;2338;49.602;8.722;2023-08-20T11:15:13;8.40;;;4.50;;
4650;SDS011;2338;49.602;8.722;2023-08-20T11:17:59;7.90;;;4.63;;
4650;SDS011;2338;49.602;8.722;2023-08-20T11:20:45;5.20;;;4.07;;
4650;SDS011;2338;49.602;8.722;2023-08-20T11:23:31;7.57;;;5.17;;
4650;SDS011;2338;49.602;8.722;2023-08-20T11:26:17;7.27;;;4.23;;
4650;SDS011;2338;49.602;8.722;2023-08-20T11:29:06;7.63;;;4.20;;
4650;SDS011;2338;49.602;8.722;2023-08-20T11:31:52;6.33;;;3.70;;
4650;SDS011;2338;49.602;8.722;2023-08-20T11:34:37;5.77;;;3.63;;
4650;SDS011;2338;49.602;8.722;2023-08-20T11:37:23;6.90;;;4.33;;
4650;SDS011;2338;49.602;8.722;2023-08-20T11:40:09;10.70;;;5.47;;
4650;SDS011;2338;49.602;8.722;2023-08-20T11:42:55;4.67;;;3.57;;
4650;SDS011;2338;49.602;8.722;2023-08-20T11:45:45;5.70;;;4.50;;
4650;SDS011;2338;49.602;8.722;2023-08-20T11:48:32;7.70;;;4.03;;
4650;SDS011;2338;49.602;8.722;2023-08-20T11:51:20;9.23;;;5.20;;
4650;SDS011;2338;49.602;8.722;2023-08-20T11:54:06;6.33;;;4.43;;
4650;SDS011;2338;49.602;8.722;2023-08-20T11:56:52;10.50;;;4.47;;
4650;SDS011;2338;49.602;8.722;2023-08-20T11:59:46;8.20;;;3.60;;
4650;SDS011;2338;49.602;8.722;2023-08-20T12:02:33;6.37;;;3.87;;
4650;SDS011;2338;49.602;8.722;2023-08-20T12:05:19;9.03;;;3.73;;
4650;SDS011;2338;49.602;8.722;2023-08-20T12:08:04;6.07;;;4.57;;
4650;SDS011;2338;49.602;8.722;2023-08-20T12:10:50;8.20;;;3.93;;
4650;SDS011;2338;49.602;8.722;2023-08-20T12:13:35;5.60;;;3.40;;
4650;SDS011;2338;49.602;8.722;2023-08-20T12:16:21;8.00;;;4.10;;
4650;SDS011;2338;49.602;8.722;2023-08-20T12:19:10;5.87;;;3.40;;
4650;SDS011;2338;49.602;8.722;2023-08-20T12:21:55;5.00;;;3.27;;
4650;SDS011;2338;49.602;8.722;2023-08-20T12:24:41;6.47;;;3.53;;
4650;SDS011;2338;49.602;8.722;2023-08-20T12:27:26;6.63;;;3.03;;
4650;SDS011;2338;49.602;8.722;2023-08-20T12:30:12;5.80;;;3.30;;
4650;SDS011;2338;49.602;8.722;2023-08-20T12:32:58;5.10;;;2.97;;
4650;SDS011;2338;49.602;8.722;2023-08-20T12:35:44;8.40;;;3.30;;
4650;SDS011;2338;49.602;8.722;2023-08-20T12:38:30;7.87;;;3.27;;
4650;SDS011;2338;49.602;8.722;2023-08-20T12:41:18;7.97;;;3.67;;
4650;SDS011;2338;49.602;8.722;2023-08-20T12:44:04;5.00;;;3.50;;
4650;SDS011;2338;49.602;8.722;2023-08-20T12:46:50;7.43;;;4.67;;
4650;SDS011;2338;49.602;8.722;2023-08-20T12:49:35;7.83;;;4.60;;
4650;SDS011;2338;49.602;8.722;2023-08-20T12:52:22;6.47;;;3.83;;
4650;SDS011;2338;49.602;8.722;2023-08-20T12:55:08;20.00;;;5.23;;
4650;SDS011;2338;49.602;8.722;2023-08-20T12:57:54;7.10;;;3.90;;
4650;SDS011;2338;49.602;8.722;2023-08-20T13:00:41;6.00;;;3.90;;
4650;SDS011;2338;49.602;8.722;2023-08-20T13:03:26;6.53;;;3.77;;
4650;SDS011;2338;49.602;8.722;2023-08-20T13:06:12;9.47;;;3.60;;
4650;SDS011;2338;49.602;8.722;2023-08-20T13:08:59;6.13;;;4.10;;
4650;SDS011;2338;49.602;8.722;2023-08-20T13:11:47;5.87;;;3.17;;
4650;SDS011;2338;49.602;8.722;2023-08-20T13:14:34;6.80;;;4.03;;
4650;SDS011;2338;49.602;8.722;2023-08-20T13:17:20;4.83;;;3.50;;
4650;SDS011;2338;49.602;8.722;2023-08-20T13:20:06;10.23;;;4.57;;
4650;SDS011;2338;49.602;8.722;2023-08-20T13:22:52;5.73;;;4.30;;
4650;SDS011;2338;49.602;8.722;2023-08-20T13:25:39;7.17;;;4.77;;
4650;SDS011;2338;49.602;8.722;2023-08-20T13:28:24;5.20;;;3.60;;
4650;SDS011;2338;49.602;8.722;2023-08-20T13:31:10;11.10;;;3.60;;
4650;SDS011;2338;49.602;8.722;2023-08-20T13:33:55;7.13;;;4.87;;
4650;SDS011;2338;49.602;8.722;2023-08-20T13:36:41;5.00;;;3.10;;
4650;SDS011;2338;49.602;8.722;2023-08-20T13:39:26;7.20;;;4.30;;
4650;SDS011;2338;49.602;8.722;2023-08-20T13:42:13;5.43;;;4.03;;
4650;SDS011;2338;49.602;8.722;2023-08-20T13:44:59;5.90;;;4.33;;
4650;SDS011;2338;49.602;8.722;2023-08-20T13:47:45;7.73;;;4.20;;
4650;SDS011;2338;49.602;8.722;2023-08-20T13:50:30;9.43;;;4.27;;
4650;SDS011;2338;49.602;8.722;2023-08-20T13:53:16;6.57;;;5.03;;
4650;SDS011;2338;49.602;8.722;2023-08-20T13:56:02;6.13;;;4.27;;
4650;SDS011;2338;49.602;8.722;2023-08-20T13:58:48;7.17;;;4.17;;
4650;SDS011;2338;49.602;8.722;2023-08-20T14:01:34;5.73;;;4.27;;
4650;SDS011;2338;49.602;8.722;2023-08-20T14:04:20;6.80;;;4.77;;
4650;SDS011;2338;49.602;8.722;2023-08-20T14:07:05;8.47;;;4.57;;
4650;SDS011;2338;49.602;8.722;2023-08-20T14:09:51;8.63;;;3.97;;
4650;SDS011;2338;49.602;8.722;2023-08-20T14:12:36;6.07;;;3.70;;
4650;SDS011;2338;49.602;8.722;2023-08-20T14:15:23;4.70;;;3.90;;
4650;SDS011;2338;49.602;8.722;2023-08-20T14:18:09;6.73;;;4.47;;
4650;SDS011;2338;49.602;8.722;2023-08-20T14:20:55;5.80;;;4.20;;
4650;SDS011;2338;49.602;8.722;2023-08-20T14:23:40;6.90;;;3.60;;
4650;SDS011;2338;49.602;8.722;2023-08-20T14:26:26;5.53;;;3.20;;
4650;SDS011;2338;49.602;8.722;2023-08-20T14:29:11;5.73;;;4.10;;
4650;SDS011;2338;49.602;8.722;2023-08-20T14:31:58;7.53;;;3.80;;
4650;SDS011;2338;49.602;8.722;2023-08-20T14:34:43;6.23;;;4.13;;
4650;SDS011;2338;49.602;8.722;2023-08-20T14:37:29;7.23;;;3.97;;
4650;SDS011;2338;49.602;8.722;2023-08-20T14:40:14;6.20;;;4.17;;
4650;SDS011;2338;49.602;8.722;2023-08-20T14:43:00;5.77;;;4.00;;
4650;SDS011;2338;49.602;8.722;2023-08-20T14:45:45;8.80;;;4.90;;
4650;SDS011;2338;49.602;8.722;2023-08-20T14:48:32;5.57;;;4.20;;
4650;SDS011;2338;49.602;8.722;2023-08-20T14:51:18;6.00;;;3.90;;
4650;SDS011;2338;49.602;8.722;2023-08-20T14:54:04;6.73;;;4.07;;
4650;SDS011;2338;49.602;8.722;2023-08-20T14:56:49;7.13;;;3.93;;
4650;SDS011;2338;49.602;8.722;2023-08-20T14:59:35;6.90;;;4.00;;
4650;SDS011;2338;49.602;8.722;2023-08-20T15:02:21;9.17;;;4.20;;
4650;SDS011;2338;49.602;8.722;2023-08-20T15:05:08;12.63;;;4.10;;
4650;SDS011;2338;49.602;8.722;2023-08-20T15:07:54;8.77;;;4.30;;
4650;SDS011;2338;49.602;8.722;2023-08-20T15:10:40;6.33;;;4.13;;
4650;SDS011;2338;49.602;8.722;2023-08-20T15:13:26;6.17;;;4.20;;
4650;SDS011;2338;49.602;8.722;2023-08-20T15:16:11;6.93;;;3.90;;
4650;SDS011;2338;49.602;8.722;2023-08-20T15:18:57;7.10;;;3.37;;
4650;SDS011;2338;49.602;8.722;2023-08-20T15:21:44;6.17;;;3.67;;
4650;SDS011;2338;49.602;8.722;2023-08-20T15:24:30;7.50;;;4.50;;
4650;SDS011;2338;49.602;8.722;2023-08-20T15:27:15;8.27;;;4.00;;
4650;SDS011;2338;49.602;8.722;2023-08-20T15:30:01;7.47;;;4.27;;
4650;SDS011;2338;49.602;8.722;2023-08-20T15:32:46;6.43;;;3.97;;
4650;SDS011;2338;49.602;8.722;2023-08-20T15:35:32;8.20;;;4.23;;
4650;SDS011;2338;49.602;8.722;2023-08-20T15:38:19;10.70;;;3.87;;
4650;SDS011;2338;49.602;8.722;2023-08-20T15:41:05;7.30;;;3.57;;
4650;SDS011;2338;49.602;8.722;2023-08-20T15:43:50;6.90;;;3.50;;
4650;SDS011;2338;49.602;8.722;2023-08-20T15:46:35;5.47;;;3.63;;
4650;SDS011;2338;49.602;8.722;2023-08-20T15:49:21;6.93;;;4.10;;
4650;SDS011;2338;49.602;8.722;2023-08-20T15:52:07;8.47;;;4.63;;
4650;SDS011;2338;49.602;8.722;2023-08-20T15:54:53;6.20;;;3.90;;
4650;SDS011;2338;49.602;8.722;2023-08-20T15:57:39;8.17;;;3.80;;
4650;SDS011;2338;49.602;8.722;2023-08-20T16:00:25;5.50;;;4.17;;
4650;SDS011;2338;49.602;8.722;2023-08-20T16:03:11;6.23;;;3.30;;
4650;SDS011;2338;49.602;8.722;2023-08-20T16:05:57;5.27;;;4.30;;
4650;SDS011;2338;49.602;8.722;2023-08-20T16:08:44;9.63;;;4.50;;
4650;SDS011;2338;49.602;8.722;2023-08-20T16:11:31;9.40;;;4.03;;
4650;SDS011;2338;49.602;8.722;2023-08-20T16:14:17;7.00;;;4.30;;
4650;SDS011;2338;49.602;8.722;2023-08-20T16:17:03;5.87;;;3.90;;
4650;SDS011;2338;49.602;8.722;2023-08-20T16:19:48;4.70;;;3.53;;
4650;SDS011;2338;49.602;8.722;2023-08-20T16:22:34;10.30;;;4.53;;
4650;SDS011;2338;49.602;8.722;2023-08-20T16:25:19;5.07;;;3.70;;
4650;SDS011;2338;49.602;8.722;2023-08-20T16:28:06;7.27;;;4.10;;
4650;SDS011;2338;49.602;8.722;2023-08-20T16:30:54;8.30;;;3.80;;
4650;SDS011;2338;49.602;8.722;2023-08-20T16:33:41;9.30;;;4.10;;
4650;SDS011;2338;49.602;8.722;2023-08-20T16:36:27;8.23;;;4.60;;
4650;SDS011;2338;49.602;8.722;2023-08-20T16:39:12;8.00;;;4.13;;
4650;SDS011;2338;49.602;8.722;2023-08-20T16:41:58;5.70;;;4.10;;
4650;SDS011;2338;49.602;8.722;2023-08-20T16:44:45;6.03;;;4.10;;
4650;SDS011;2338;49.602;8.722;2023-08-20T16:47:30;5.17;;;3.90;;
4650;SDS011;2338;49.602;8.722;2023-08-20T16:50:15;8.70;;;4.80;;
4650;SDS011;2338;49.602;8.722;2023-08-20T16:53:01;8.67;;;4.60;;
4650;SDS011;2338;49.602;8.722;2023-08-20T16:55:50;6.37;;;4.43;;
4650;SDS011;2338;49.602;8.722;2023-08-20T16:58:36;15.00;;;4.07;;
4650;SDS011;2338;49.602;8.722;2023-08-20T17:01:23;8.73;;;4.53;;
4650;SDS011;2338;49.602;8.722;2023-08-20T17:04:08;7.17;;;4.10;;
4650;SDS011;2338;49.602;8.722;2023-08-20T17:06:54;7.87;;;4.50;;
4650;SDS011;2338;49.602;8.722;2023-08-20T17:09:39;21.00;;;4.63;;
4650;SDS011;2338;49.602;8.722;2023-08-20T17:12:25;10.73;;;5.03;;
4650;SDS011;2338;49.602;8.722;2023-08-20T17:15:10;8.50;;;4.40;;